LiveATC.Net - Listen to live air traffic control over the Internet! Contact for advertising information

ICAO: SBBI  IATA: BFH   Airport: Bacacheri Airport
City: Curitiba
Country: Brazil   Continent: South America
SBBI METAR Weather: SBBI 270000Z 11006KT 9999 BKN006 BKN008 19/18 Q1019
SBBI Flight Activity (FlightAware)
SBBI Gnd/Twr
Feed Status: DOWN
Last heard on: 2015-11-15 18:12:03 (11 days 14 hours 3 minutes ago)
SBBI Gnd/Twr Audio Archives
Bacacheri Ground121.800
Bacacheri Tower118.900

SBBI Gnd/Twr/App
Feed Status: UP   Listeners: 2
Listen right in your browser - requires Flash (in browser, requires Flash)
Click here to listen with your own player (launches your MP3 player)
SBBI Gnd/Twr/App Audio Archives
Bacacheri Ground121.900
Bacacheri Tower118.900
Curitiba Approach119.950

TMA Curitiba Blog


Unauthorized use prohibited. See Terms of Service

Find LiveATC Audio Streams

Airport/ARTCC Code

(e.g., 124.400, 128.75)
Site-wide search

Browse LiveATC Feeds
LiveATC Coverage Map
Top 50 LiveATC Feeds
Bad Weather Areas

Offer a LiveATC Feed
Press Inquiries

LiveATC on iPhone
LiveATC on Android

Windows Phone
Windows 8/10

LiveATC Mobile
(Mobile browser)

ATC Audio Archives
Interesting Recordings

LiveATC Forums

Home Page
Make a Donation
LiveATC Bookstore

Terms of Use
Privacy Policy

ATC/Radar Sites
U.S. ARTCC Freqs
Canadian Air Freqs


FAA Airport Status
Nat'l Airspace Status
Arrival Demand Charts

Server Software By:

Please make a donation to help us keep growing!